Yeovilton

ADDS - METARS form results

Output produced by METARs form (1616 UTC 22 October 2019)
found at http://www.aviationweather.gov/metar/data/
 
METAR text: EGDY 221550Z 15005KT 9999 FEW020 14/09 Q1022 NOSIG RMK BLU BLU
Conditions at: EGDY (YEOVILTON (NAVY), GB) observed 1550 UTC 22 October 2019
Temperature: 14.0°C (57°F)
Dewpoint: 9.0°C (48°F) [RH = 72%]
Pressure (altimeter): 30.18 inches Hg (1022.0 mb)
Winds: from the SSE (150 degrees) at 6 MPH (5 knots; 2.6 m/s)
Visibility: 6 or more miles (10+ km)
Ceiling: at least 12,000 feet AGL
Clouds: few clouds at 2000 feet AGL
Weather: no significant weather observed at this time

Forecast for: EGDY (YEOVILTON (NAVY), GB)
Text: TAF EGDY 221348Z 2215/2224 VRB03KT 9999 FEW020 BKN050
Forecast period: 1500 to 2100 UTC 22 October 2019
Forecast type: FROM: standard forecast or significant change
Winds: variable direction winds at 3 MPH (3 knots; 1.5 m/s)
Visibility: 6 or more miles 10+ km)
Ceiling: 5000 feet AGL
Clouds: few clouds at 2000 feet AGL
broken clouds at 5000 feet AGL
Weather: no significant weather forecast for this period
Text: PROB30
Forecast period: 1500 to 1800 UTC 22 October 2019
Forecast type: TEMPORARY: The following changes expected for less than half the time period
Visibility: missing
Ceiling: at least 12,000 feet AGL
Clouds: scattered clouds at 2000 feet AGL
Weather: -SHRA  (light rain showers)
Text: TEMPO 2215/2218 -SHRA SCT020
Forecast period: 2100 UTC 22 October 2019 to 0000 UTC 23 October 2019
Forecast type: BECOMING: Conditions expected to become as follows by 2300 UTC 22 October 2019
Winds: from the SE (140 degrees) at 5 MPH (4 knots; 2.1 m/s)
Visibility: 4 miles (6 km)
Ceiling: 5000 feet AGL
Clouds: few clouds at 2000 feet AGL
broken clouds at 5000 feet AGL
Weather: BR  (mist)
Text: BECMG 2221/2223 14004KT 6000 BR
Forecast period: 2200 UTC 22 October 2019 to 0000 UTC 23 October 2019
Forecast type: TEMPORARY: The following changes expected for less than half the time period
Visibility: 0.50 miles (0.80 km)
Ceiling: unknown
Clouds: missing
Weather: FG  (fog)


Bournemouth

ADDS - METARS form results

Output produced by METARs form (1616 UTC 22 October 2019)
found at http://www.aviationweather.gov/metar/data/
 
METAR text: EGHH 221550Z 14008KT 9999 FEW017 SCT022 14/10 Q1022
Conditions at: EGHH (BOURNEMOUTH AIRP, GB) observed 1550 UTC 22 October 2019
Temperature: 14.0°C (57°F)
Dewpoint: 10.0°C (50°F) [RH = 77%]
Pressure (altimeter): 30.18 inches Hg (1022.0 mb)
Winds: from the SE (140 degrees) at 9 MPH (8 knots; 4.1 m/s)
Visibility: 6 or more miles (10+ km)
Ceiling: at least 12,000 feet AGL
Clouds: few clouds at 1700 feet AGL
scattered clouds at 2200 feet AGL
Weather: no significant weather observed at this time

METAR text: EGHH 221520Z 14008KT 9999 FEW018 SCT019 14/10 Q1022
Conditions at: EGHH (BOURNEMOUTH AIRP, GB) observed 1520 UTC 22 October 2019
Temperature: 14.0°C (57°F)
Dewpoint: 10.0°C (50°F) [RH = 77%]
Pressure (altimeter): 30.18 inches Hg (1022.0 mb)
Winds: from the SE (140 degrees) at 9 MPH (8 knots; 4.1 m/s)
Visibility: 6 or more miles (10+ km)
Ceiling: at least 12,000 feet AGL
Clouds: few clouds at 1800 feet AGL
scattered clouds at 1900 feet AGL
Weather: no significant weather observed at this time

Forecast for: EGHH (BOURNEMOUTH AIRP, GB)
Text: TAF EGHH 221403Z 2215/2224 VRB03KT 9999 SCT025
Forecast period: 1500 to 2100 UTC 22 October 2019
Forecast type: FROM: standard forecast or significant change
Winds: variable direction winds at 3 MPH (3 knots; 1.5 m/s)
Visibility: 6 or more miles 10+ km)
Ceiling: at least 12,000 feet AGL
Clouds: scattered clouds at 2500 feet AGL
Weather: no significant weather forecast for this period
Text: PROB30 2219/2221 5000 BR
Forecast period: 1900 to 2100 UTC 22 October 2019
Forecast type: PROBABLE: 30 percent likelihood of the following during this time
Visibility: 3 miles (5 km)
Ceiling: unknown
Clouds: missing
Weather: BR  (mist)
Text: BECMG 2221/2224 4000 BR
Forecast period: 2100 UTC 22 October 2019 to 0000 UTC 23 October 2019
Forecast type: BECOMING: Conditions expected to become as follows by 0000 UTC 23 October 2019
Winds: variable direction winds at 3 MPH (3 knots; 1.5 m/s)
Visibility: 2.49 miles (4.01 km)
Ceiling: at least 12,000 feet AGL
Clouds: scattered clouds at 2500 feet AGL
Weather: BR  (mist)
Text: PROB30 2222/2224 0300 FG VV///
Forecast period: 2200 UTC 22 October 2019 to 0000 UTC 23 October 2019
Forecast type: PROBABLE: 30 percent likelihood of the following during this time
Visibility: 0.19 miles (0.31 km)
Ceiling: unknown
Clouds: missing
Weather: FG  (fog)


Boscombe

ADDS - METARS form results

Output produced by METARs form (1616 UTC 22 October 2019)
found at http://www.aviationweather.gov/metar/data/
 
METAR text: EGDM 221550Z 16004KT 9999 FEW040 BKN050 13/07 Q1022 NOSIG RMK BLU BLU
Conditions at: EGDM (BOSCOMBE DOWN , GB) observed 1550 UTC 22 October 2019
Temperature: 13.0°C (55°F)
Dewpoint: 7.0°C (45°F) [RH = 67%]
Pressure (altimeter): 30.18 inches Hg (1022.0 mb)
Winds: from the SSE (160 degrees) at 5 MPH (4 knots; 2.1 m/s)
Visibility: 6 or more miles (10+ km)
Ceiling: 5000 feet AGL
Clouds: few clouds at 4000 feet AGL
broken clouds at 5000 feet AGL
Weather: no significant weather observed at this time

METAR text: EGDM 221520Z 18004KT 9999 FEW045 BKN060 13/06 Q1022 NOSIG RMK BLU BLU
Conditions at: EGDM (BOSCOMBE DOWN , GB) observed 1520 UTC 22 October 2019
Temperature: 13.0°C (55°F)
Dewpoint: 6.0°C (43°F) [RH = 62%]
Pressure (altimeter): 30.18 inches Hg (1022.0 mb)
Winds: from the S (180 degrees) at 5 MPH (4 knots; 2.1 m/s)
Visibility: 6 or more miles (10+ km)
Ceiling: 6000 feet AGL
Clouds: few clouds at 4500 feet AGL
broken clouds at 6000 feet AGL
Weather: no significant weather observed at this time

Forecast for: EGDM (BOSCOMBE DOWN , GB)
Text: TAF EGDM 221333Z 2215/2218 20005KT 9999 SCT035
Forecast period: 1500 to 1800 UTC 22 October 2019
Forecast type: FROM: standard forecast or significant change
Winds: from the SSW (200 degrees) at 6 MPH (5 knots; 2.6 m/s)
Visibility: 6 or more miles 10+ km)
Ceiling: at least 12,000 feet AGL
Clouds: scattered clouds at 3500 feet AGL
Weather: no significant weather forecast for this period


Bristol

ADDS - METARS form results

Output produced by METARs form (1616 UTC 22 October 2019)
found at http://www.aviationweather.gov/metar/data/
 
METAR text: EGGD 221550Z AUTO 18005KT 9999 NCD 12/06 Q1022
Conditions at: EGGD (BRISTOL/LULSGATE, GB) observed 1550 UTC 22 October 2019
Temperature: 12.0°C (54°F)
Dewpoint: 6.0°C (43°F) [RH = 67%]
Pressure (altimeter): 30.18 inches Hg (1022.0 mb)
Winds: from the S (180 degrees) at 6 MPH (5 knots; 2.6 m/s)
Visibility: 6 or more miles (10+ km)
Ceiling: at least 12,000 feet AGL
Clouds: sky clear below 12,000 feet AGL
Weather: no significant weather observed at this time

METAR text: EGGD 221520Z AUTO 19006KT 9999 NCD 13/07 Q1022
Conditions at: EGGD (BRISTOL/LULSGATE, GB) observed 1520 UTC 22 October 2019
Temperature: 13.0°C (55°F)
Dewpoint: 7.0°C (45°F) [RH = 67%]
Pressure (altimeter): 30.18 inches Hg (1022.0 mb)
Winds: from the S (190 degrees) at 7 MPH (6 knots; 3.1 m/s)
Visibility: 6 or more miles (10+ km)
Ceiling: at least 12,000 feet AGL
Clouds: sky clear below 12,000 feet AGL
Weather: no significant weather observed at this time

Forecast for: EGGD (BRISTOL/LULSGATE, GB)
Text: TAF EGGD 221056Z 2212/2312 20005KT 9999 SCT040
Forecast period: 1200 UTC 22 October 2019 to 0000 UTC 23 October 2019
Forecast type: FROM: standard forecast or significant change
Winds: from the SSW (200 degrees) at 6 MPH (5 knots; 2.6 m/s)
Visibility: 6 or more miles 10+ km)
Ceiling: at least 12,000 feet AGL
Clouds: scattered clouds at 4000 feet AGL
Weather: no significant weather forecast for this period
Text: PROB40 2221/2224 6000
Forecast period: 2100 UTC 22 October 2019 to 0000 UTC 23 October 2019
Forecast type: PROBABLE: 40 percent likelihood of the following during this time
Visibility: 4 miles (6 km)
Ceiling: unknown
Clouds: missing
Weather: no significant weather forecast for this period
Text: BECMG 2300/2303 3000 BR
Forecast period: 0000 to 0800 UTC 23 October 2019
Forecast type: BECOMING: Conditions expected to become as follows by 0300 UTC 23 October 2019
Winds: from the SSW (200 degrees) at 6 MPH (5 knots; 2.6 m/s)
Visibility: 1.86 miles (2.99 km)
Ceiling: at least 12,000 feet AGL
Clouds: scattered clouds at 4000 feet AGL
Weather: BR  (mist)
Text: PROB40 2301/2308 0300 FG VV///
Forecast period: 0100 to 0800 UTC 23 October 2019
Forecast type: PROBABLE: 40 percent likelihood of the following during this time
Visibility: 0.19 miles (0.31 km)
Ceiling: unknown
Clouds: missing
Weather: FG  (fog)
Text: BECMG 2308/2311 12010KT 9999 NSW
Forecast period: 0800 to 1200 UTC 23 October 2019
Forecast type: BECOMING: Conditions expected to become as follows by 1100 UTC 23 October 2019
Winds: from the ESE (120 degrees) at 12 MPH (10 knots; 5.1 m/s)
Visibility: 6 or more miles 10+ km)
Ceiling: at least 12,000 feet AGL
Clouds: scattered clouds at 4000 feet AGL
Weather: NSW  (no significant weather)
Text: PROB30
Forecast period: 0800 to 1100 UTC 23 October 2019
Forecast type: TEMPORARY: The following changes expected for less than half the time period
Visibility: missing
Ceiling: 400 feet AGL
Clouds: broken clouds at 400 feet AGL
Weather: no significant weather forecast for this period






Experience Flights